Terminal Aerodrome Forecast
Issued by NWS

Home | Current Version | Previous Version | Text Only | Print | Product List | Glossary On
Versions: 1 2 3 4 5 6 7 8 9 10 11 12 13
000
FTUS41 KPHI 262351
TAFMIV
TAF
KMIV 262351Z 2700/2724 16006KT P6SM SCT250
     FM270200 VRB02KT P6SM SCT080 BKN250
     FM271500 20007KT P6SM SCT100 BKN250
     FM272000 17010KT P6SM SCT050=

USA.gov is the U.S. government's official web portal to all federal, state and local government web resources and services.